createdAt,value
2023-05-19T00:02:06.190Z,100.00
2023-05-19T00:05:10.534Z,100.00
2023-05-19T00:08:16.581Z,100.00
2023-05-19T00:11:19.439Z,100.00
2023-05-19T00:14:29.275Z,100.00
2023-05-19T00:17:34.453Z,100.00
2023-05-19T00:20:38.420Z,100.00
2023-05-19T00:23:41.180Z,100.00
2023-05-19T00:26:43.678Z,100.00
2023-05-19T00:29:46.291Z,100.00
2023-05-19T00:32:49.102Z,100.00
2023-05-19T00:35:51.783Z,100.00
2023-05-19T00:38:54.348Z,100.00
2023-05-19T00:41:56.933Z,100.00
2023-05-19T00:44:59.522Z,100.00
2023-05-19T00:48:02.350Z,100.00
2023-05-19T00:51:06.704Z,100.00
2023-05-19T00:54:09.691Z,100.00
2023-05-19T00:57:14.039Z,100.00
2023-05-19T01:00:16.938Z,100.00
2023-05-19T01:03:20.930Z,100.00
2023-05-19T01:06:23.585Z,100.00
2023-05-19T01:09:26.203Z,100.00
2023-05-19T01:12:29.216Z,100.00
2023-05-19T01:15:41.870Z,100.00
2023-05-19T01:18:51.182Z,100.00
2023-05-19T01:22:31.066Z,100.00
2023-05-19T01:25:57.891Z,100.00
2023-05-19T01:29:26.670Z,100.00
2023-05-19T01:32:30.191Z,100.00
2023-05-19T01:35:38.472Z,100.00
2023-05-19T01:38:41.184Z,100.00
2023-05-19T01:41:44.844Z,100.00
2023-05-19T01:44:47.843Z,100.00
2023-05-19T01:47:54.133Z,100.00
2023-05-19T01:50:59.154Z,100.00
2023-05-19T01:54:01.819Z,100.00
2023-05-19T01:57:11.825Z,100.00
2023-05-19T02:00:42.702Z,100.00
2023-05-19T02:03:59.778Z,100.00
2023-05-19T02:07:09.480Z,100.00
2023-05-19T02:10:19.930Z,100.00
2023-05-19T02:13:24.734Z,100.00
2023-05-19T02:16:29.099Z,100.00
2023-05-19T02:19:34.334Z,100.00
2023-05-19T02:22:36.977Z,100.00
2023-05-19T02:25:39.589Z,100.00
2023-05-19T02:28:42.232Z,100.00
2023-05-19T02:31:44.955Z,100.00
2023-05-19T02:34:48.621Z,100.00
2023-05-19T02:37:51.764Z,100.00
2023-05-19T02:40:54.452Z,100.00
2023-05-19T02:43:57.001Z,100.00
2023-05-19T02:46:59.551Z,100.00
2023-05-19T02:50:02.260Z,100.00
2023-05-19T02:53:04.985Z,100.00
2023-05-19T02:56:07.570Z,100.00
2023-05-19T02:59:10.255Z,100.00
2023-05-19T03:02:12.902Z,100.00
2023-05-19T03:05:16.611Z,100.00
2023-05-19T03:08:19.839Z,100.00
2023-05-19T03:11:23.463Z,100.00
2023-05-19T03:14:26.044Z,100.00
2023-05-19T03:17:33.874Z,100.00
2023-05-19T03:20:36.521Z,100.00
2023-05-19T03:23:39.153Z,100.00
2023-05-19T03:26:42.278Z,100.00
2023-05-19T03:29:44.890Z,100.00
2023-05-19T03:32:52.308Z,100.00
2023-05-19T03:35:54.993Z,100.00
2023-05-19T03:38:58.313Z,100.00
2023-05-19T03:42:00.959Z,100.00
2023-05-19T03:45:03.923Z,100.00
2023-05-19T03:48:06.850Z,100.00
2023-05-19T03:51:09.803Z,100.00
2023-05-19T03:54:12.671Z,100.00
2023-05-19T03:57:15.371Z,100.00
2023-05-19T04:00:19.052Z,100.00
2023-05-19T04:03:21.700Z,100.00
2023-05-19T04:06:27.712Z,100.00
2023-05-19T04:09:32.194Z,100.00
2023-05-19T04:12:34.855Z,100.00
2023-05-19T04:15:37.566Z,100.00
2023-05-19T04:18:40.439Z,100.00
2023-05-19T04:21:43.044Z,100.00
2023-05-19T04:24:46.555Z,100.00
2023-05-19T04:27:49.228Z,100.00
2023-05-19T04:30:52.133Z,100.00
2023-05-19T04:33:54.935Z,100.00
2023-05-19T04:36:57.675Z,100.00
2023-05-19T04:40:00.251Z,100.00
2023-05-19T04:43:02.886Z,100.00
2023-05-19T04:46:06.492Z,100.00
2023-05-19T04:49:09.278Z,100.00
2023-05-19T04:52:12.786Z,100.00
2023-05-19T04:55:16.097Z,100.00
2023-05-19T04:58:19.932Z,100.00
2023-05-19T05:01:26.359Z,100.00
2023-05-19T05:04:29.215Z,100.00
2023-05-19T05:07:34.759Z,100.00
2023-05-19T05:10:37.380Z,100.00
2023-05-19T05:13:40.379Z,100.00
2023-05-19T05:16:43.763Z,100.00
2023-05-19T05:19:46.681Z,100.00
2023-05-19T05:22:49.775Z,100.00
2023-05-19T05:25:55.935Z,100.00
2023-05-19T05:28:58.672Z,100.00
2023-05-19T05:32:01.295Z,100.00
2023-05-19T05:35:06.975Z,100.00
2023-05-19T05:38:11.652Z,100.00
2023-05-19T05:41:14.399Z,100.00
2023-05-19T05:44:16.960Z,100.00
2023-05-19T05:47:19.972Z,100.00
2023-05-19T05:50:22.817Z,100.00
2023-05-19T05:53:26.419Z,100.00
2023-05-19T05:56:29.248Z,100.00
2023-05-19T05:59:34.015Z,100.00
2023-05-19T06:02:37.146Z,100.00
2023-05-19T06:05:39.842Z,100.00
2023-05-19T06:08:42.682Z,100.00
2023-05-19T06:11:45.429Z,100.00
2023-05-19T06:14:48.035Z,100.00
2023-05-19T06:17:50.801Z,100.00
2023-05-19T06:20:53.479Z,100.00
2023-05-19T06:23:56.110Z,100.00
2023-05-19T06:26:58.985Z,100.00
2023-05-19T06:30:01.755Z,100.00
2023-05-19T06:33:04.433Z,100.00
2023-05-19T06:36:08.619Z,100.00
2023-05-19T06:39:11.235Z,100.00
2023-05-19T06:42:13.922Z,100.00
2023-05-19T06:45:16.977Z,100.00
2023-05-19T06:48:19.760Z,100.00
2023-05-19T06:51:22.551Z,100.00
2023-05-19T06:54:25.324Z,100.00
2023-05-19T06:57:27.952Z,100.00
2023-05-19T07:00:30.664Z,100.00
2023-05-19T07:03:33.387Z,100.00
2023-05-19T07:06:36.189Z,100.00
2023-05-19T07:09:38.907Z,100.00
2023-05-19T07:12:41.597Z,100.00
2023-05-19T07:15:44.306Z,100.00
2023-05-19T07:18:46.989Z,100.00
2023-05-19T07:21:49.923Z,100.00
2023-05-19T07:24:52.930Z,100.00
2023-05-19T07:27:55.514Z,100.00
2023-05-19T07:30:58.187Z,100.00
2023-05-19T07:34:00.912Z,100.00
2023-05-19T07:37:03.814Z,100.00
2023-05-19T07:40:08.087Z,100.00
2023-05-19T07:43:11.674Z,100.00
2023-05-19T07:46:14.326Z,100.00
2023-05-19T07:49:17.083Z,100.00
2023-05-19T07:52:19.693Z,100.00
2023-05-19T07:55:23.426Z,100.00
2023-05-19T07:58:26.413Z,100.00
2023-05-19T08:01:30.558Z,100.00
2023-05-19T08:04:33.315Z,100.00
2023-05-19T08:07:36.370Z,100.00
2023-05-19T08:10:39.103Z,100.00
2023-05-19T08:13:41.855Z,100.00
2023-05-19T08:16:46.215Z,100.00
2023-05-19T08:19:48.974Z,100.00
2023-05-19T08:22:51.844Z,100.00
2023-05-19T08:25:54.462Z,100.00
2023-05-19T08:28:57.152Z,100.00
2023-05-19T08:32:00.488Z,100.00
2023-05-19T08:35:03.139Z,100.00
2023-05-19T08:38:05.811Z,100.00
2023-05-19T08:41:08.891Z,99.77
2023-05-19T08:44:11.825Z,97.58
2023-05-19T08:47:14.490Z,98.17
2023-05-19T08:50:23.020Z,96.80
2023-05-19T08:56:34.349Z,94.36
2023-05-19T08:59:37.255Z,93.06
2023-05-19T09:02:50.477Z,92.51
2023-05-19T09:06:02.767Z,95.68
2023-05-19T09:09:06.413Z,93.47
2023-05-19T09:12:09.399Z,92.85
2023-05-19T09:15:16.265Z,92.76
2023-05-19T09:18:18.927Z,90.94
2023-05-19T09:21:31.419Z,89.79
2023-05-19T09:24:34.399Z,85.99
2023-05-19T09:27:37.353Z,90.11
2023-05-19T09:30:40.026Z,91.61
2023-05-19T09:33:45.890Z,91.84
2023-05-19T09:36:53.474Z,90.87
2023-05-19T09:39:56.681Z,91.13
2023-05-19T09:42:59.249Z,91.81
2023-05-19T09:46:13.634Z,92.44
2023-05-19T09:49:32.964Z,92.24
2023-05-19T09:52:39.703Z,91.80
2023-05-19T09:55:42.997Z,91.77
2023-05-19T09:58:45.886Z,92.93
2023-05-19T10:01:49.006Z,91.47
2023-05-19T10:04:52.818Z,90.74
2023-05-19T10:07:55.998Z,90.65
2023-05-19T10:10:58.858Z,89.44
2023-05-19T10:14:01.555Z,88.18
2023-05-19T10:17:04.388Z,86.07
2023-05-19T10:20:15.692Z,85.52
2023-05-19T10:23:18.959Z,85.38
2023-05-19T10:26:22.018Z,83.86
2023-05-19T10:29:29.151Z,78.62
2023-05-19T10:32:32.947Z,81.59
2023-05-19T10:35:52.875Z,79.96
2023-05-19T10:39:04.501Z,76.00
2023-05-19T10:42:19.907Z,71.14
2023-05-19T10:45:24.455Z,79.21
2023-05-19T10:48:27.042Z,78.06
2023-05-19T10:51:32.945Z,76.51
2023-05-19T10:54:48.637Z,76.71
2023-05-19T10:57:56.997Z,76.53
2023-05-19T11:01:03.426Z,78.80
2023-05-19T11:04:07.116Z,79.11
2023-05-19T11:07:10.687Z,79.19
2023-05-19T11:10:13.679Z,79.92
2023-05-19T11:13:22.680Z,78.67
2023-05-19T11:16:29.667Z,76.79
2023-05-19T11:19:34.944Z,72.07
2023-05-19T11:22:39.004Z,74.29
2023-05-19T11:25:54.002Z,73.12
2023-05-19T11:28:57.277Z,71.25
2023-05-19T11:32:00.992Z,72.87
2023-05-19T11:35:03.806Z,74.26
2023-05-19T11:38:07.615Z,74.67
2023-05-19T11:41:10.152Z,74.34
2023-05-19T11:44:12.898Z,74.65
2023-05-19T11:47:17.383Z,73.38
2023-05-19T11:50:20.824Z,74.04
2023-05-19T11:53:23.574Z,74.14
2023-05-19T11:56:26.324Z,72.78
2023-05-19T11:59:35.592Z,72.90
2023-05-19T12:02:39.049Z,72.82
2023-05-19T12:05:45.998Z,72.28
2023-05-19T12:08:52.050Z,72.15
2023-05-19T12:11:55.370Z,69.55
2023-05-19T12:14:58.144Z,72.28
2023-05-19T12:18:02.371Z,72.02
2023-05-19T12:21:05.552Z,70.20
2023-05-19T12:24:09.072Z,69.63
2023-05-19T12:27:18.449Z,67.44
2023-05-19T12:30:26.690Z,65.10
2023-05-19T12:33:29.460Z,63.40
2023-05-19T12:36:32.535Z,62.54
2023-05-19T12:39:35.325Z,65.53
2023-05-19T12:42:38.089Z,63.24
2023-05-19T12:45:42.801Z,63.60
2023-05-19T12:48:46.634Z,64.78
2023-05-19T12:51:53.886Z,62.24
2023-05-19T12:55:07.902Z,61.26
2023-05-19T12:58:16.032Z,62.78
2023-05-19T13:01:19.271Z,64.04
2023-05-19T13:04:22.137Z,60.75
2023-05-19T13:07:24.918Z,60.80
2023-05-19T13:10:28.356Z,58.68
2023-05-19T13:13:31.135Z,56.78
2023-05-19T13:16:33.795Z,59.36
2023-05-19T13:19:36.555Z,60.37
2023-05-19T13:22:39.263Z,59.46
2023-05-19T13:25:42.783Z,57.12
2023-05-19T13:28:45.514Z,56.90
2023-05-19T13:31:48.242Z,56.09
2023-05-19T13:34:50.885Z,55.36
2023-05-19T13:37:53.562Z,54.96
2023-05-19T13:40:56.171Z,53.88
2023-05-19T13:44:02.106Z,53.81
2023-05-19T13:47:05.054Z,53.07
2023-05-19T13:50:08.234Z,53.74
2023-05-19T13:53:11.757Z,53.28
2023-05-19T13:56:14.462Z,51.94
2023-05-19T13:59:21.796Z,51.58
2023-05-19T14:02:24.548Z,53.05
2023-05-19T14:05:29.210Z,52.41
2023-05-19T14:08:32.602Z,51.44
2023-05-19T14:11:35.566Z,50.63
2023-05-19T14:14:38.666Z,49.92
2023-05-19T14:17:41.510Z,48.34
2023-05-19T14:20:44.353Z,46.87
2023-05-19T14:23:47.117Z,49.37
2023-05-19T14:26:50.090Z,49.08
2023-05-19T14:29:52.766Z,49.92
2023-05-19T14:32:56.290Z,48.81
2023-05-19T14:36:02.283Z,48.02
2023-05-19T14:39:04.976Z,48.07
2023-05-19T14:42:07.621Z,47.95
2023-05-19T14:45:11.042Z,47.36
2023-05-19T14:48:13.908Z,47.32
2023-05-19T14:51:16.645Z,48.52
2023-05-19T14:54:19.298Z,47.49
2023-05-19T14:57:21.956Z,48.39
2023-05-19T15:00:27.232Z,52.42
2023-05-19T15:03:29.887Z,50.31
2023-05-19T15:06:32.558Z,51.13
2023-05-19T15:09:35.656Z,49.73
2023-05-19T15:12:38.616Z,49.09
2023-05-19T15:15:41.319Z,48.94
2023-05-19T15:18:44.603Z,48.67
2023-05-19T15:21:47.312Z,49.23
2023-05-19T15:24:49.886Z,50.16
2023-05-19T15:27:52.479Z,49.07
2023-05-19T15:30:55.706Z,49.42
2023-05-19T15:33:58.342Z,51.16
2023-05-19T15:37:01.023Z,49.91
2023-05-19T15:40:04.631Z,50.17
2023-05-19T15:43:07.254Z,50.80
2023-05-19T15:46:10.098Z,52.12
2023-05-19T15:49:13.125Z,55.43
2023-05-19T15:52:15.998Z,57.41
2023-05-19T15:55:18.894Z,58.50
2023-05-19T15:58:21.753Z,60.66
2023-05-19T16:01:24.497Z,61.33
2023-05-19T16:04:27.216Z,61.74
2023-05-19T16:07:30.024Z,62.29
2023-05-19T16:10:33.069Z,62.02
2023-05-19T16:13:36.148Z,62.17
2023-05-19T16:16:39.030Z,62.48
2023-05-19T16:19:41.929Z,63.38
2023-05-19T16:22:44.573Z,63.67
2023-05-19T16:25:47.830Z,64.62
2023-05-19T16:28:50.692Z,64.48
2023-05-19T16:31:53.496Z,65.89
2023-05-19T16:34:56.291Z,66.67
2023-05-19T16:37:59.044Z,66.83
2023-05-19T16:41:01.796Z,67.66
2023-05-19T16:44:04.604Z,68.45
2023-05-19T16:47:07.228Z,68.88
2023-05-19T16:50:10.411Z,69.40
2023-05-19T16:53:13.212Z,70.33
2023-05-19T16:56:16.050Z,70.92
2023-05-19T16:59:18.791Z,71.52
2023-05-19T17:02:21.546Z,72.81
2023-05-19T17:05:24.300Z,72.81
2023-05-19T17:08:27.060Z,73.56
2023-05-19T17:11:29.718Z,74.18
2023-05-19T17:14:32.383Z,74.62
2023-05-19T17:17:35.113Z,74.76
2023-05-19T17:20:37.789Z,75.35
2023-05-19T17:23:40.409Z,75.79
2023-05-19T17:26:43.152Z,76.36
2023-05-19T17:29:46.057Z,76.80
2023-05-19T17:32:48.819Z,78.11
2023-05-19T17:35:51.549Z,78.39
2023-05-19T17:38:54.259Z,79.06
2023-05-19T17:41:56.918Z,80.65
2023-05-19T17:44:59.713Z,80.85
2023-05-19T17:48:02.583Z,81.54
2023-05-19T17:51:07.177Z,82.05
2023-05-19T17:54:10.001Z,83.43
2023-05-19T17:57:13.480Z,84.98
2023-05-19T18:00:16.448Z,86.72
2023-05-19T18:03:19.536Z,87.56
2023-05-19T18:06:24.566Z,88.29
2023-05-19T18:09:29.147Z,88.93
2023-05-19T18:12:31.860Z,89.53
2023-05-19T18:15:35.023Z,90.78
2023-05-19T18:18:40.370Z,91.39
2023-05-19T18:21:43.084Z,92.18
2023-05-19T18:24:45.835Z,94.53
2023-05-19T18:27:48.630Z,95.17
2023-05-19T18:31:01.696Z,95.18
2023-05-19T18:34:04.719Z,95.26
2023-05-19T18:37:07.526Z,96.77
2023-05-19T18:40:10.669Z,96.96
2023-05-19T18:43:13.425Z,98.63
2023-05-19T18:46:18.027Z,99.04
2023-05-19T18:49:21.129Z,99.46
2023-05-19T18:52:24.416Z,100.00
2023-05-19T18:55:27.088Z,100.00
2023-05-19T18:58:29.745Z,100.00
2023-05-19T19:01:32.640Z,100.00
2023-05-19T19:04:35.320Z,100.00
2023-05-19T19:07:41.790Z,100.00
2023-05-19T19:10:44.520Z,100.00
2023-05-19T19:13:51.315Z,100.00
2023-05-19T19:16:54.078Z,100.00
2023-05-19T19:19:56.934Z,100.00
2023-05-19T19:22:59.631Z,100.00
2023-05-19T19:26:02.452Z,100.00
2023-05-19T19:29:05.187Z,100.00
2023-05-19T19:32:08.019Z,100.00
2023-05-19T19:35:11.294Z,100.00
2023-05-19T19:38:14.167Z,100.00
2023-05-19T19:41:16.960Z,100.00
2023-05-19T19:44:19.789Z,100.00
2023-05-19T19:47:22.483Z,100.00
2023-05-19T19:50:25.159Z,100.00
2023-05-19T19:53:27.968Z,100.00
2023-05-19T19:56:30.589Z,100.00
2023-05-19T19:59:33.280Z,100.00
2023-05-19T20:02:40.972Z,100.00
2023-05-19T20:05:48.371Z,100.00
2023-05-19T20:08:50.991Z,100.00
2023-05-19T20:11:54.003Z,100.00
2023-05-19T20:14:56.868Z,100.00
2023-05-19T20:17:59.502Z,100.00
2023-05-19T20:21:02.202Z,100.00
2023-05-19T20:24:05.026Z,100.00
2023-05-19T20:27:07.959Z,100.00
2023-05-19T20:30:10.917Z,100.00
2023-05-19T20:33:13.805Z,100.00
2023-05-19T20:36:16.523Z,100.00
2023-05-19T20:39:19.310Z,100.00
2023-05-19T20:42:21.915Z,100.00
2023-05-19T20:45:24.593Z,100.00
2023-05-19T20:48:27.474Z,100.00
2023-05-19T20:51:30.318Z,100.00
2023-05-19T20:54:32.958Z,100.00
2023-05-19T20:57:35.681Z,100.00
2023-05-19T21:00:38.402Z,100.00
2023-05-19T21:03:41.087Z,100.00
2023-05-19T21:06:43.884Z,100.00
2023-05-19T21:09:48.220Z,100.00
2023-05-19T21:12:50.965Z,100.00
2023-05-19T21:15:53.624Z,100.00
2023-05-19T21:18:56.461Z,100.00
2023-05-19T21:21:59.177Z,100.00
2023-05-19T21:25:01.912Z,100.00
2023-05-19T21:28:04.882Z,100.00
2023-05-19T21:31:07.591Z,100.00
2023-05-19T21:34:10.347Z,100.00
2023-05-19T21:37:12.953Z,100.00
2023-05-19T21:40:15.641Z,100.00
2023-05-19T21:43:18.491Z,100.00
2023-05-19T21:46:21.266Z,100.00
2023-05-19T21:49:23.898Z,100.00
2023-05-19T21:52:26.574Z,100.00
2023-05-19T21:55:29.208Z,100.00
2023-05-19T21:58:31.936Z,100.00
2023-05-19T22:01:34.538Z,100.00
2023-05-19T22:04:38.734Z,100.00
2023-05-19T22:07:41.982Z,100.00
2023-05-19T22:10:44.980Z,100.00
2023-05-19T22:13:47.623Z,100.00
2023-05-19T22:16:50.390Z,100.00
2023-05-19T22:19:53.250Z,100.00
2023-05-19T22:22:57.010Z,100.00
2023-05-19T22:25:59.894Z,100.00
2023-05-19T22:29:03.469Z,100.00
2023-05-19T22:32:12.266Z,100.00
2023-05-19T22:35:15.093Z,100.00
2023-05-19T22:38:17.739Z,100.00
2023-05-19T22:41:20.369Z,100.00
2023-05-19T22:44:22.913Z,100.00
2023-05-19T22:47:25.747Z,100.00
2023-05-19T22:50:28.357Z,100.00
2023-05-19T22:53:31.024Z,100.00
2023-05-19T22:56:33.860Z,100.00
2023-05-19T22:59:38.427Z,100.00
2023-05-19T23:02:42.063Z,100.00
2023-05-19T23:05:44.667Z,100.00
2023-05-19T23:08:47.593Z,100.00
2023-05-19T23:11:50.444Z,100.00
2023-05-19T23:14:53.259Z,100.00
2023-05-19T23:17:56.022Z,100.00
2023-05-19T23:20:58.703Z,100.00
2023-05-19T23:24:01.490Z,100.00
2023-05-19T23:27:04.141Z,100.00
2023-05-19T23:30:07.394Z,100.00
2023-05-19T23:33:10.044Z,100.00
2023-05-19T23:36:12.863Z,100.00
2023-05-19T23:39:15.429Z,100.00
2023-05-19T23:42:18.333Z,100.00
2023-05-19T23:45:20.923Z,100.00
2023-05-19T23:48:23.620Z,100.00
2023-05-19T23:51:26.731Z,100.00
2023-05-19T23:54:30.430Z,100.00
2023-05-19T23:57:33.043Z,100.00
